createdAt,value
2024-05-09T00:00:37.918Z,96691.59
2024-05-09T00:03:47.293Z,96690.81
2024-05-09T00:06:52.967Z,96695.72
2024-05-09T00:09:57.351Z,96684.44
2024-05-09T00:13:01.865Z,96690.81
2024-05-09T00:16:06.762Z,96691.94
2024-05-09T00:19:13.959Z,96674.75
2024-05-09T00:22:18.607Z,96684.13
2024-05-09T00:25:23.126Z,96683.66
2024-05-09T00:28:28.414Z,96687.63
2024-05-09T00:31:32.865Z,96680.97
2024-05-09T00:34:39.802Z,96680.97
2024-05-09T00:37:44.120Z,96687.94
2024-05-09T00:40:48.526Z,96677.13
2024-05-09T00:43:53.075Z,96683.84
2024-05-09T00:46:58.381Z,96670.78
2024-05-09T00:50:10.131Z,96683.66
2024-05-09T00:53:21.524Z,96677.63
2024-05-09T00:56:26.158Z,96681.41
2024-05-09T00:59:32.552Z,96673.16
2024-05-09T01:02:36.958Z,96679.84
2024-05-09T01:05:44.512Z,96673.97
2024-05-09T01:08:48.942Z,96680.63
2024-05-09T01:11:53.567Z,96687.63
2024-05-09T01:14:58.100Z,96675.84
2024-05-09T01:18:04.661Z,96684.13
2024-05-09T01:21:13.062Z,96685.56
2024-05-09T01:24:20.092Z,96689.06
2024-05-09T01:27:24.428Z,96679.19
2024-05-09T01:30:34.431Z,96679.66
2024-05-09T01:33:41.449Z,96675.38
2024-05-09T01:36:45.960Z,96684.44
2024-05-09T01:39:52.900Z,96683.66
2024-05-09T01:42:57.266Z,96679.66
2024-05-09T01:46:01.524Z,96674.25
2024-05-09T01:49:06.070Z,96677.28
2024-05-09T01:52:10.418Z,96677.63
2024-05-09T01:55:17.455Z,96678.69
2024-05-09T01:58:21.899Z,96680.78
2024-05-09T02:01:26.218Z,96688.88
2024-05-09T02:04:30.856Z,96693.66
2024-05-09T02:07:35.199Z,96683.94
2024-05-09T02:10:42.182Z,96689.34
2024-05-09T02:13:46.617Z,96688.41
2024-05-09T02:16:51.143Z,96690.97
2024-05-09T02:19:55.568Z,96683.03
2024-05-09T02:23:00.413Z,96682.19
2024-05-09T02:26:07.760Z,96673.31
2024-05-09T02:29:12.132Z,96685.88
2024-05-09T02:32:16.576Z,96686.97
2024-05-09T02:35:20.874Z,96685.06
2024-05-09T02:38:25.160Z,96685.72
2024-05-09T02:41:29.571Z,96668.06
2024-05-09T02:44:34.227Z,96677.91
2024-05-09T02:47:38.670Z,96674.91
2024-05-09T02:50:40.812Z,96668.56
2024-05-09T02:53:45.411Z,96675.22
2024-05-09T02:56:49.707Z,96676.00
2024-05-09T02:59:53.974Z,96673.81
2024-05-09T03:02:55.716Z,96666.94
2024-05-09T03:06:00.085Z,96670.44
2024-05-09T03:09:04.844Z,96669.97
2024-05-09T03:12:12.630Z,96670.13
2024-05-09T03:15:14.725Z,96678.22
2024-05-09T03:18:20.084Z,96669.00
2024-05-09T03:21:23.159Z,96676.31
2024-05-09T03:24:27.710Z,96674.09
2024-05-09T03:27:32.173Z,96675.53
2024-05-09T03:30:42.638Z,96677.75
2024-05-09T03:33:48.261Z,96680.94
2024-05-09T03:36:57.385Z,96676.78
2024-05-09T03:40:02.938Z,96675.22
2024-05-09T03:43:20.620Z,96669.63
2024-05-09T03:46:25.555Z,96678.22
2024-05-09T03:49:28.221Z,96669.63
2024-05-09T03:52:33.375Z,96672.03
2024-05-09T03:55:35.089Z,96676.31
2024-05-09T03:58:42.116Z,96677.13
2024-05-09T04:01:44.258Z,96665.03
2024-05-09T04:04:51.633Z,96662.31
2024-05-09T04:07:53.745Z,96665.84
2024-05-09T04:11:01.600Z,96672.34
2024-05-09T04:14:06.032Z,96671.25
2024-05-09T04:17:11.826Z,96668.06
2024-05-09T04:20:28.726Z,96673.63
2024-05-09T04:23:41.644Z,96676.66
2024-05-09T04:26:44.898Z,96678.84
2024-05-09T04:29:51.850Z,96685.03
2024-05-09T04:32:53.683Z,96691.25
2024-05-09T04:35:58.662Z,96695.56
2024-05-09T04:39:00.415Z,96693.16
2024-05-09T04:42:04.862Z,96703.66
2024-05-09T04:45:10.374Z,96690.78
2024-05-09T04:48:17.717Z,96701.75
2024-05-09T04:51:19.959Z,96700.47
2024-05-09T04:54:33.722Z,96699.66
2024-05-09T04:57:41.164Z,96692.69
2024-05-09T05:00:50.636Z,96695.38
2024-05-09T05:03:52.697Z,96702.84
2024-05-09T05:07:01.372Z,96698.38
2024-05-09T05:10:11.744Z,96698.09
2024-05-09T05:13:18.495Z,96696.66
2024-05-09T05:16:26.130Z,96684.88
2024-05-09T05:19:28.064Z,96688.88
2024-05-09T05:22:32.457Z,96693.16
2024-05-09T05:25:34.177Z,96692.69
2024-05-09T05:28:39.262Z,96694.59
2024-05-09T05:31:43.578Z,96696.97
2024-05-09T05:34:47.895Z,96701.25
2024-05-09T05:37:52.310Z,96698.88
2024-05-09T05:40:54.074Z,96694.09
2024-05-09T05:43:58.431Z,96700.78
2024-05-09T05:47:03.040Z,96706.19
2024-05-09T05:50:20.440Z,96701.25
2024-05-09T05:53:31.188Z,96706.19
2024-05-09T05:56:33.032Z,96712.38
2024-05-09T05:59:37.375Z,96715.88
2024-05-09T06:02:44.510Z,96714.28
2024-05-09T06:05:49.094Z,96708.38
2024-05-09T06:08:53.508Z,96715.41
2024-05-09T06:11:55.389Z,96717.78
2024-05-09T06:15:00.865Z,96723.19
2024-05-09T06:18:11.982Z,96721.28
2024-05-09T06:21:19.390Z,96723.81
2024-05-09T06:24:21.193Z,96723.66
2024-05-09T06:27:25.566Z,96718.41
2024-05-09T06:30:36.578Z,96719.97
2024-05-09T06:33:46.688Z,96728.25
2024-05-09T06:36:48.680Z,96732.06
2024-05-09T06:39:52.980Z,96735.09
2024-05-09T06:42:57.557Z,96740.97
2024-05-09T06:46:01.855Z,96733.19
2024-05-09T06:49:08.444Z,96730.97
2024-05-09T06:52:13.981Z,96733.50
2024-05-09T06:55:15.851Z,96732.88
2024-05-09T06:58:20.225Z,96738.88
2024-05-09T07:01:24.446Z,96746.38
2024-05-09T07:04:31.442Z,96742.69
2024-05-09T07:07:35.874Z,96730.63
2024-05-09T07:10:38.309Z,96749.06
2024-05-09T07:13:42.660Z,96748.28
2024-05-09T07:16:47.065Z,96753.22
2024-05-09T07:19:51.548Z,96740.78
2024-05-09T07:22:55.921Z,96740.31
2024-05-09T07:25:58.716Z,96741.91
2024-05-09T07:29:03.093Z,96739.22
2024-05-09T07:32:06.763Z,96743.66
2024-05-09T07:35:13.971Z,96738.09
2024-05-09T07:38:15.751Z,96738.41
2024-05-09T07:41:20.083Z,96749.88
2024-05-09T07:44:21.787Z,96739.72
2024-05-09T07:48:56.972Z,96735.91
2024-05-09T07:52:37.906Z,96740.97
2024-05-09T07:54:15.207Z,96735.41
2024-05-09T07:57:20.039Z,96738.88
2024-05-09T08:00:29.516Z,96732.41
2024-05-09T08:03:35.947Z,96732.06
2024-05-09T08:06:40.364Z,96727.28
2024-05-09T08:09:44.638Z,96728.09
2024-05-09T08:12:46.501Z,96730.00
2024-05-09T08:15:51.810Z,96746.69
2024-05-09T08:18:53.938Z,96735.72
2024-05-09T08:22:06.854Z,96737.31
2024-05-09T08:25:10.687Z,96743.19
2024-05-09T08:28:16.550Z,96725.84
2024-05-09T08:31:21.022Z,96744.78
2024-05-09T08:34:22.975Z,96730.31
2024-05-09T08:37:34.937Z,96737.31
2024-05-09T08:40:39.603Z,96740.50
2024-05-09T08:43:44.158Z,96735.09
2024-05-09T08:46:47.653Z,96731.28
2024-05-09T08:49:58.367Z,96730.63
2024-05-09T08:53:02.798Z,96739.38
2024-05-09T08:56:12.208Z,96735.72
2024-05-09T08:59:20.814Z,96741.28
2024-05-09T09:02:25.353Z,96733.50
2024-05-09T09:05:31.204Z,96739.22
2024-05-09T09:08:41.988Z,96738.41
2024-05-09T09:11:43.672Z,96739.53
2024-05-09T09:14:47.970Z,96735.72
2024-05-09T09:17:54.765Z,96744.28
2024-05-09T09:20:59.233Z,96736.03
2024-05-09T09:24:03.741Z,96736.84
2024-05-09T09:27:08.621Z,96732.69
2024-05-09T09:30:22.949Z,96733.00
2024-05-09T09:33:36.161Z,96731.44
2024-05-09T09:36:40.990Z,96735.22
2024-05-09T09:39:49.210Z,96727.94
2024-05-09T09:43:00.269Z,96740.78
2024-05-09T09:46:09.553Z,96735.22
2024-05-09T09:49:14.533Z,96733.63
2024-05-09T09:52:19.911Z,96733.50
2024-05-09T09:55:25.819Z,96734.31
2024-05-09T09:58:32.497Z,96732.69
2024-05-09T10:01:35.990Z,96725.84
2024-05-09T10:04:41.864Z,96720.13
2024-05-09T10:07:46.920Z,96719.00
2024-05-09T10:10:55.738Z,96734.13
2024-05-09T10:14:00.668Z,96731.44
2024-05-09T10:17:06.196Z,96739.53
2024-05-09T10:20:18.259Z,96733.34
2024-05-09T10:23:25.713Z,96734.59
2024-05-09T10:26:41.198Z,96733.00
2024-05-09T10:29:54.930Z,96723.31
2024-05-09T10:32:59.355Z,96723.31
2024-05-09T10:36:03.302Z,96724.91
2024-05-09T10:39:08.039Z,96718.72
2024-05-09T10:42:12.665Z,96716.16
2024-05-09T10:45:19.228Z,96715.22
2024-05-09T10:48:21.402Z,96708.53
2024-05-09T10:51:27.436Z,96714.72
2024-05-09T10:54:35.664Z,96714.91
2024-05-09T10:57:46.273Z,96701.88
2024-05-09T11:00:48.269Z,96699.63
2024-05-09T11:03:54.082Z,96700.75
2024-05-09T11:06:57.467Z,96696.47
2024-05-09T11:10:02.242Z,96701.72
2024-05-09T11:13:06.734Z,96705.22
2024-05-09T11:16:20.196Z,96700.94
2024-05-09T11:19:22.368Z,96694.25
2024-05-09T11:22:27.318Z,96691.53
2024-05-09T11:25:30.475Z,96688.50
2024-05-09T11:28:37.416Z,96692.84
2024-05-09T11:31:45.748Z,96685.34
2024-05-09T11:34:50.086Z,96681.06
2024-05-09T11:37:51.879Z,96674.88
2024-05-09T11:40:56.319Z,96662.44
2024-05-09T11:44:00.569Z,96657.84
2024-05-09T11:47:05.419Z,96660.25
2024-05-09T11:50:08.332Z,96658.66
2024-05-09T11:53:17.049Z,96669.16
2024-05-09T11:56:22.153Z,96662.44
2024-05-09T11:59:26.588Z,96664.53
2024-05-09T12:02:30.922Z,96659.94
2024-05-09T12:05:33.996Z,96655.31
2024-05-09T12:08:38.995Z,96654.53
2024-05-09T12:11:40.744Z,96655.66
2024-05-09T12:14:47.649Z,96655.81
2024-05-09T12:17:50.949Z,96655.31
2024-05-09T12:20:55.466Z,96653.75
2024-05-09T12:23:59.797Z,96650.25
2024-05-09T12:27:01.487Z,96647.88
2024-05-09T12:30:14.171Z,96653.13
2024-05-09T12:33:19.919Z,96631.16
2024-05-09T12:36:21.839Z,96636.75
2024-05-09T12:39:26.057Z,96640.69
2024-05-09T12:42:29.086Z,96620.38
2024-05-09T12:45:37.505Z,96630.56
2024-05-09T12:48:39.622Z,96623.56
2024-05-09T12:51:44.166Z,96620.88
2024-05-09T12:54:48.456Z,96613.56
2024-05-09T12:57:50.443Z,96618.63
2024-05-09T13:00:57.399Z,96615.94
2024-05-09T13:04:02.014Z,96614.03
2024-05-09T13:07:06.396Z,96611.16
2024-05-09T13:10:16.289Z,96596.38
2024-05-09T13:13:24.408Z,96598.16
2024-05-09T13:16:29.123Z,96596.25
2024-05-09T13:19:33.675Z,96593.03
2024-05-09T13:22:35.839Z,96597.81
2024-05-09T13:25:40.471Z,96593.88
2024-05-09T13:28:42.650Z,96595.13
2024-05-09T13:31:50.467Z,96588.13
2024-05-09T13:34:52.643Z,96581.94
2024-05-09T13:37:57.442Z,96586.69
2024-05-09T13:40:59.131Z,96592.09
2024-05-09T13:44:03.608Z,96596.41
2024-05-09T13:47:08.709Z,96588.13
2024-05-09T13:50:20.579Z,96577.34
2024-05-09T13:53:29.768Z,96572.72
2024-05-09T13:56:34.058Z,96571.75
2024-05-09T13:59:35.869Z,96564.94
2024-05-09T14:02:43.487Z,96577.00
2024-05-09T14:05:48.257Z,96565.75
2024-05-09T14:08:52.708Z,96562.72
2024-05-09T14:11:54.513Z,96565.41
2024-05-09T14:14:58.886Z,96558.75
2024-05-09T14:18:07.013Z,96564.00
2024-05-09T14:21:09.648Z,96551.44
2024-05-09T14:24:13.884Z,96544.75
2024-05-09T14:27:15.630Z,96550.00
2024-05-09T14:30:30.110Z,96544.31
2024-05-09T14:33:42.901Z,96541.13
2024-05-09T14:36:44.788Z,96540.66
2024-05-09T14:39:49.158Z,96536.03
2024-05-09T14:42:50.937Z,96543.97
2024-05-09T14:45:55.859Z,96541.13
2024-05-09T14:49:00.636Z,96530.31
2024-05-09T14:52:05.327Z,96530.47
2024-05-09T14:55:10.113Z,96528.41
2024-05-09T14:58:16.575Z,96521.41
2024-05-09T15:01:25.435Z,96518.72
2024-05-09T15:04:32.016Z,96509.81
2024-05-09T15:07:38.274Z,96521.88
2024-05-09T15:10:41.473Z,96513.78
2024-05-09T15:13:48.598Z,96516.47
2024-05-09T15:16:50.831Z,96510.63
2024-05-09T15:19:59.038Z,96512.38
2024-05-09T15:23:01.865Z,96506.50
2024-05-09T15:26:07.139Z,96500.59
2024-05-09T15:29:09.338Z,96506.50
2024-05-09T15:32:14.781Z,96504.88
2024-05-09T15:35:22.886Z,96504.59
2024-05-09T15:38:28.479Z,96499.19
2024-05-09T15:41:31.396Z,96495.84
2024-05-09T15:44:36.991Z,96493.78
2024-05-09T15:47:41.725Z,96499.19
2024-05-09T15:50:46.925Z,96486.78
2024-05-09T15:53:51.605Z,96489.47
2024-05-09T15:56:56.131Z,96493.00
2024-05-09T16:00:00.680Z,96487.28
2024-05-09T16:03:02.483Z,96490.75
2024-05-09T16:06:09.439Z,96480.91
2024-05-09T16:09:11.196Z,96496.94
2024-05-09T16:12:15.800Z,96486.47
2024-05-09T16:15:17.595Z,96483.00
2024-05-09T16:18:22.240Z,96480.28
2024-05-09T16:21:26.488Z,96480.59
2024-05-09T16:24:30.840Z,96478.84
2024-05-09T16:27:35.332Z,96479.16
2024-05-09T16:30:37.184Z,96486.16
2024-05-09T16:33:41.723Z,96481.53
2024-05-09T16:36:46.266Z,96479.16
2024-05-09T16:39:50.643Z,96480.75
2024-05-09T16:42:55.065Z,96479.34
2024-05-09T16:45:57.109Z,96471.69
2024-05-09T16:49:01.543Z,96477.41
2024-05-09T16:52:06.735Z,96478.38
2024-05-09T16:55:11.162Z,96482.03
2024-05-09T16:58:16.018Z,96473.44
2024-05-09T17:01:20.782Z,96480.75
2024-05-09T17:04:22.660Z,96478.53
2024-05-09T17:07:30.192Z,96478.06
2024-05-09T17:10:34.247Z,96477.75
2024-05-09T17:13:40.893Z,96469.94
2024-05-09T17:16:45.347Z,96476.94
2024-05-09T17:19:50.207Z,96474.22
2024-05-09T17:22:54.695Z,96474.22
2024-05-09T17:25:59.005Z,96466.47
2024-05-09T17:29:00.792Z,96472.81
2024-05-09T17:32:06.301Z,96464.88
2024-05-09T17:35:08.241Z,96480.44
2024-05-09T17:38:15.439Z,96480.59
2024-05-09T17:41:19.678Z,96472.81
2024-05-09T17:44:21.327Z,96479.63
2024-05-09T17:47:25.719Z,96469.94
2024-05-09T17:50:34.913Z,96472.66
2024-05-09T17:53:44.079Z,96477.75
2024-05-09T17:56:46.087Z,96477.09
2024-05-09T17:59:52.042Z,96471.84
2024-05-09T18:02:53.784Z,96481.69
2024-05-09T18:05:58.174Z,96471.84
2024-05-09T18:09:05.587Z,96477.41
2024-05-09T18:12:07.832Z,96473.13
2024-05-09T18:15:12.151Z,96475.06
2024-05-09T18:18:14.138Z,96474.72
2024-05-09T18:21:18.592Z,96479.50
2024-05-09T18:24:25.661Z,96471.22
2024-05-09T18:27:30.941Z,96477.41
2024-05-09T18:30:35.931Z,96469.66
2024-05-09T18:33:42.215Z,96477.09
2024-05-09T18:36:47.688Z,96474.72
2024-05-09T18:39:52.160Z,96475.50
2024-05-09T18:42:57.019Z,96477.09
2024-05-09T18:45:59.268Z,96480.13
2024-05-09T18:49:04.038Z,96483.63
2024-05-09T18:52:10.838Z,96481.25
2024-05-09T18:55:15.540Z,96482.34
2024-05-09T18:58:20.572Z,96490.59
2024-05-09T19:01:26.275Z,96481.09
2024-05-09T19:04:28.761Z,96494.88
2024-05-09T19:07:33.304Z,96499.03
2024-05-09T19:10:39.445Z,96507.91
2024-05-09T19:13:43.852Z,96494.25
2024-05-09T19:16:48.349Z,96500.16
2024-05-09T19:19:52.553Z,96509.81
2024-05-09T19:22:56.927Z,96502.34
2024-05-09T19:26:01.420Z,96505.06
2024-05-09T19:29:06.967Z,96508.72
2024-05-09T19:32:08.782Z,96517.94
2024-05-09T19:35:13.205Z,96514.59
2024-05-09T19:38:15.045Z,96519.19
2024-05-09T19:41:22.593Z,96517.31
2024-05-09T19:44:27.139Z,96516.03
2024-05-09T19:47:29.081Z,96522.69
2024-05-09T19:50:41.214Z,96515.22
2024-05-09T19:53:45.801Z,96526.81
2024-05-09T19:56:52.773Z,96517.44
2024-05-09T19:59:57.147Z,96524.59
2024-05-09T20:02:59.001Z,96525.41
2024-05-09T20:06:05.258Z,96513.66
2024-05-09T20:09:07.212Z,96524.59
2024-05-09T20:12:14.359Z,96522.84
2024-05-09T20:15:16.348Z,96532.38
2024-05-09T20:18:21.082Z,96532.69
2024-05-09T20:21:24.048Z,96530.81
2024-05-09T20:24:28.347Z,96531.59
2024-05-09T20:27:32.965Z,96525.25
2024-05-09T20:30:38.289Z,96522.84
2024-05-09T20:33:40.170Z,96528.91
2024-05-09T20:36:44.799Z,96525.53
2024-05-09T20:39:46.549Z,96529.97
2024-05-09T20:42:53.509Z,96528.09
2024-05-09T20:45:55.298Z,96526.81
2024-05-09T20:48:59.894Z,96527.63
2024-05-09T20:52:01.632Z,96528.41
2024-05-09T20:55:06.056Z,96517.59
2024-05-09T20:58:13.809Z,96523.50
2024-05-09T21:01:16.033Z,96515.56
2024-05-09T21:04:21.081Z,96520.63
2024-05-09T21:07:22.919Z,96515.84
2024-05-09T21:10:31.551Z,96514.13
2024-05-09T21:13:39.820Z,96520.00
2024-05-09T21:16:41.641Z,96524.59
2024-05-09T21:19:46.108Z,96513.31
2024-05-09T21:22:47.768Z,96521.88
2024-05-09T21:25:52.020Z,96513.66
2024-05-09T21:28:56.326Z,96522.38
2024-05-09T21:32:00.891Z,96514.13
2024-05-09T21:35:02.605Z,96519.50
2024-05-09T21:38:07.860Z,96518.41
2024-05-09T21:41:12.989Z,96514.13
2024-05-09T21:44:17.471Z,96515.69
2024-05-09T21:47:22.988Z,96506.63
2024-05-09T21:50:32.384Z,96502.84
2024-05-09T21:53:45.307Z,96509.50
2024-05-09T21:56:47.316Z,96508.38
2024-05-09T21:59:55.405Z,96513.00
2024-05-09T22:02:58.132Z,96515.41
2024-05-09T22:06:02.568Z,96514.59
2024-05-09T22:09:05.588Z,96508.09
2024-05-09T22:12:09.922Z,96503.31
2024-05-09T22:15:14.358Z,96506.00
2024-05-09T22:18:18.865Z,96507.59
2024-05-09T22:21:20.669Z,96508.72
2024-05-09T22:24:24.999Z,96516.19
2024-05-09T22:27:26.742Z,96514.28
2024-05-09T22:30:37.955Z,96498.69
2024-05-09T22:33:43.987Z,96508.38
2024-05-09T22:36:50.026Z,96504.09
2024-05-09T22:39:53.853Z,96508.88
2024-05-09T22:43:00.362Z,96499.50
2024-05-09T22:46:12.671Z,96504.88
2024-05-09T22:49:14.939Z,96500.78
2024-05-09T22:52:20.334Z,96500.59
2024-05-09T22:55:22.612Z,96506.50
2024-05-09T22:58:28.723Z,96504.88
2024-05-09T23:01:33.320Z,96499.19
2024-05-09T23:04:37.972Z,96493.78
2024-05-09T23:07:39.856Z,96498.41
2024-05-09T23:10:45.343Z,96499.50
2024-05-09T23:13:48.386Z,96491.72
2024-05-09T23:16:55.483Z,96484.72
2024-05-09T23:20:00.191Z,96497.56
2024-05-09T23:23:05.154Z,96482.03
2024-05-09T23:26:07.063Z,96487.09
2024-05-09T23:29:11.629Z,96485.97
2024-05-09T23:32:16.490Z,96489.81
2024-05-09T23:35:22.216Z,96485.19
2024-05-09T23:38:25.015Z,96478.22
2024-05-09T23:41:30.183Z,96487.25
2024-05-09T23:44:36.176Z,96482.50
2024-05-09T23:47:42.463Z,96485.97
2024-05-09T23:50:52.396Z,96483.78
2024-05-09T23:53:54.359Z,96490.28
2024-05-09T23:56:59.719Z,96481.69
